Japan Airlines Virtual Airport Information Service

Taiwan Taoyuan International Airport

ICAO: RCTP Country: Taiwan
Latitude: 25.0777 Longitude: 121.233
Latest Arrival : CAL149 (RKSI-RCTP) Latest Departure : CAL100 (RCTP-RJAA)


WX CaptureLIVE
Data provided by noaa.gov | Fetched at 15:32:27

METAR : RCTP 211500Z 04024KT 5000 -RA SCT005 BKN007 BKN015 23/21 Q1009 NOSIG RMK A2980 RA AMT 0.4MM

TAF : RCTP 211100Z 2112/2218 04020KT 3200 RA BR SCT004 BKN007 BKN020 TEMPO 2112/2120 03022G33KT 1700 RA SCT002 BKN004 BKN020 TEMPO 2200/2206 03025G35KT 6000 NSW SCT007 BKN011 BKN030 BECMG 2206/2208 8000 NSW FEW008 BKN016 BKN030 TEMPO 2209/2215 FEW012 BKN032 BECMG 2216/2218 FEW020 BKN050


Runway Data for RCTP
Data provided by openaviationdata.com

Runway ID Mag Var Hdg Length Elevation Surface ILS Freq ILS Id ILS Slope
5 -3 52° 12020 ft 107 ft Concrete 111.1 ITIA 3
6 -3 52° 11001 ft 107 ft Concrete 110.7 ICKS 3
23 -3 232° 12020 ft 107 ft Concrete 109.3 ITYA 3
24 -3 232° 11001 ft 107 ft Concrete 111.9 ICJN 3

Taiwan Taoyuan International Airport, Taiwan
Use only for reference purposes



Not for navigational purposes.